Enter the Airport ICAO Code

Search by Airport or City

Current Weather

KMCO | Orlando International Airport

Orlando, Florida, United States

Last Update 56 Minutes Ago

Completely Cloudy Sky

Temperature of 26 ºC

Light to Moderate Winds from SouthEast

Temperature

26 ºC

Dew Point Temperature

24 ºC

Relative Humidity

88.82 %

Wind Direction

SouthEast (130º, Without Significant Variations)

Wind Velocity

9 km/h (05 kt)

Gusts

None

Visibility

Greater than 10 Miles

Sea Level Pressure

30.08 inHg (Inches of Mercury)

Layers of Clouds

5% to 30% of Sky Covered from 2743 mts (9000 ft) Above Ground Level.

90% to 100% of Sky Covered from 5182 mts (17000 ft) Above Ground Level.

METAR KMCO 191153Z 13005KT 10SM FEW090 OVC170 26/24 A3008 RMK AO2 SLP185 T02560244 10261 20250 51009

Weather Forecast

KMCO | Orlando International Airport

Orlando, Florida, United States

Forecast valid for the next 29 Hours

From now on it is expected:

Mostly Cloudy Sky

Light Winds from Variable Directions

In 1 hour it is expected the begining of:

Moderate Winds from SouthEast

In 7 hours it is expected the begining of:

Rain Shower

In 11 hours it is expected the begining of:

Mostly Cloudy Sky

Light Winds from South

Maximum Temperature

No Data

Minimum Temperature

No Data

TAF KMCO 191127Z 1912/2018 VRB02KT P6SM BKN150 BKN250 FM191400 15010KT P6SM FEW040 BKN150 BKN250 FM192000 13010KT P6SM VCSH SCT045 BKN150 BKN250 FM200000 16004KT P6SM FEW045 BKN150